Terminal Aerodrome Forecast
Issued by NWS

Current Version | Previous Version | Text Only | Print | Product List | Glossary On
Versions: 1 2 3 4 5 6 7 8 9 10 11 12
000
FTAK31 PAJN 210534
TAFASI
TAF
PASI 210534Z 2106/2206 30006KT P6SM SKC
     FM211000 32005KT P6SM SCT010 BKN100
     FM220000 25005KT P6SM -RA OVC015=

USA.gov is the U.S. government's official web portal to all federal, state and local government web resources and services.